Main page
METAR-TAF:

METAR-TAF

Airports :

Santo-Pekoa International Airport

Luganville, Espiritu Santo, Vanuatu

latitude: 15-31S, longitude: 167-13E, elevation: 41 m

Current weather observation

The report was made 6 hours and 22 minutes ago, at 12:00 UTC
Wind 14 kt from the Southeast
Temperature 25°C
Humidity 83%
Pressure 1014 hPa
Visibility 10 km or more
Scattered clouds at a height of 2000 ft
Broken clouds at a height of 4000 ft

METAR: NVSS 211200Z 13014KT 9999 SCT020 BKN040 25/22 Q1014 RERA

Time: 05:22 (18:22 UTC)

Forecast

The report was made 1 hour and 22 minutes ago, at 17:00 UTC
Forecast valid from 21 at 18 UTC to 22 at 18 UTC
Wind 10 kt from the East/Southeast
Visibility 10 km or more
Scattered clouds at a height of 2000 ft
Probability 40%
between IN and TE UTC
Visibility: 8000 m
Scattered clouds at a height of 1000 ft
Broken clouds at a height of 1600 ft
rain showers,

TAF: NVSS 211700Z 2118/2218 11010KT 9999 SCT020 PROB40 INTER 2118/2122 8000 SHRA SCT010 BKN016

Weather observations and forecasts of more than 4000 airports (METAR and TAF reports).

The available stations are represented by yellow and red dots on the map.

Hover mouse over dot to see the name of the station.

Then click to see weather observations and forecasts.

To change the map : click on the green buttons with a black cross to zoom in, on the green button with a dash to zoom out, or on the green arrows for adjacent maps.


METAR-TAF: